Weather reports worldwide

Advertisment
St.Catherine`s Point, United Kingdom (3866): temperature & dewpoint: 17.01.2019 23:00:00 - 23.01.2019 23:00:00 (GMT)St.Catherine`s Point, United Kingdom (3866): wind speed & gusts: 17.01.2019 23:00:00 - 23.01.2019 23:00:00 (GMT)St.Catherine`s Point, United Kingdom (3866): wind direction: 17.01.2019 23:00:00 - 23.01.2019 23:00:00 (GMT)St.Catherine`s Point, United Kingdom (3866): reduced air pressure: 17.01.2019 23:00:00 - 23.01.2019 23:00:00 (GMT)St.Catherine`s Point, United Kingdom (3866): precipitation: 17.01.2019 23:00:00 - 23.01.2019 23:00:00 (GMT)
Date & Time tt [°C] td [°C] ff [km/h] ff [kn] fx [km/h] fx [kn] dd ppp [hPa] rr [mm]
23.01.2019 23:00:00 1,9 -1,3 9 5 - - NNE 1008,8 0,0
23.01.2019 22:00:00 1,9 -1,6 5 3 - - NW 1008,4 0,0
23.01.2019 21:00:00 2,1 -1,3 4 2 - - NNW 1008,1 0,0
23.01.2019 20:00:00 2,3 -1,4 4 2 - - SE 1008,0 0,0
23.01.2019 19:00:00 2,7 -1,4 21 11 - - NW 1007,3 0,0
23.01.2019 18:00:00 2,6 -1,7 15 8 - - NW 1007,1 0,0
23.01.2019 17:00:00 2,8 -2,3 15 8 - - WNW 1006,2 0,0
23.01.2019 16:00:00 3,9 -1,5 8 4 - - NW 1005,2 0,0
23.01.2019 15:00:00 4,7 -0,7 11 6 - - WNW 1004,3 0,0
23.01.2019 14:00:00 4,0 -1,5 16 9 - - NW 1003,6 0,0
23.01.2019 13:00:00 3,7 -0,9 13 7 - - NW 1003,4 0,0
23.01.2019 12:00:00 3,1 -0,9 21 11 - - WNW 1002,9 0,0
23.01.2019 11:00:00 2,8 -1,1 18 10 - - NW 1002,6 0,0
23.01.2019 10:00:00 2,0 -0,5 15 8 - - NW 1001,9 0,0
23.01.2019 09:00:00 1,5 -0,8 18 10 - - NW 1000,7 0,0
23.01.2019 08:00:00 1,3 -0,8 21 11 - - NW 999,8 0,0
23.01.2019 07:00:00 1,3 -0,5 18 10 - - WNW 999,1 0,0
23.01.2019 06:00:00 1,6 -0,3 11 6 - - WNW 998,8 0,0
23.01.2019 05:00:00 1,6 -0,8 15 8 - - WNW 998,4 0,0
23.01.2019 04:00:00 2,0 -0,7 13 7 - - NNW 997,6 0,0
23.01.2019 03:00:00 1,5 -1,2 11 6 - - WNW 998,0 0,0
23.01.2019 02:00:00 1,5 -0,7 9 5 - - NW 997,8 0,0
23.01.2019 01:00:00 1,6 -1,0 9 5 - - WNW 997,7 0,0
23.01.2019 00:00:00 2,6 -0,6 15 8 - - NW 997,6 0,0
22.01.2019 23:00:00 2,3 -0,1 9 5 - - NW 998,0 0,0
22.01.2019 22:00:00 2,5 0,9 13 7 - - NW 998,3 0,0
22.01.2019 21:00:00 3,0 1,6 13 7 - - NW 998,3 0,0
22.01.2019 20:00:00 3,5 1,7 15 8 - - NW 998,3 0,0
22.01.2019 19:00:00 4,2 2,3 16 9 - - NW 998,4 0,0
22.01.2019 18:00:00 3,7 2,2 15 8 - - WNW 999,0 0,0
22.01.2019 17:00:00 4,1 2,4 21 11 - - NW 999,2 0,8
22.01.2019 16:00:00 4,6 2,9 24 13 46 25 WNW 999,5 0,8
22.01.2019 15:00:00 4,2 2,5 13 7 - - NW 1000,4 0,8
22.01.2019 14:00:00 6,2 1,0 16 9 - - W 1000,9 0,0
22.01.2019 13:00:00 6,3 1,8 16 9 - - W 1002,6 0,0
22.01.2019 12:00:00 6,4 2,6 22 12 - - W 1003,8 0,0
22.01.2019 11:00:00 6,5 2,6 26 14 - - W 1004,3 0,0
22.01.2019 10:00:00 5,9 2,1 26 14 - - W 1004,6 0,0
22.01.2019 09:00:00 5,6 1,9 26 14 - - W 1004,8 0,0
22.01.2019 08:00:00 5,0 2,2 21 11 - - W 1005,0 0,0
22.01.2019 07:00:00 4,9 1,4 18 10 - - WNW - 0,0
22.01.2019 06:00:00 5,3 1,7 24 13 - - WNW - 0,0
22.01.2019 05:00:00 5,4 2,0 22 12 - - WNW 1005,6 0,0
22.01.2019 04:00:00 5,6 2,9 24 13 - - WNW - 0,0
22.01.2019 03:00:00 4,5 2,7 13 7 52 28 NW - 1,4
22.01.2019 02:00:00 6,4 5,1 46 25 67 36 W - 4,4
22.01.2019 01:00:00 8,0 6,8 35 19 57 31 SW 1007,5 2,0
22.01.2019 00:00:00 8,0 6,1 39 21 57 31 SW 1009,2 0,2
21.01.2019 23:00:00 7,7 6,1 26 14 - - SW 1010,9 0,0
21.01.2019 22:00:00 7,6 6,0 22 12 - - SSW 1012,6 0,0
21.01.2019 21:00:00 7,2 5,0 28 15 - - SW 1014,4 0,0
21.01.2019 20:00:00 7,4 4,5 26 14 - - SW 1015,5 0,0
21.01.2019 19:00:00 7,1 4,0 22 12 - - SW 1016,8 0,0
21.01.2019 18:00:00 6,7 3,2 18 10 - - SW 1018,2 0,0
21.01.2019 17:00:00 6,0 2,8 13 7 - - SSW 1019,4 0,0
21.01.2019 16:00:00 5,5 2,2 9 5 - - SSW 1020,1 0,0
21.01.2019 15:00:00 5,4 1,9 8 4 - - SSW 1021,1 0,0
21.01.2019 14:00:00 5,7 1,7 8 4 - - SW 1021,9 0,0
21.01.2019 13:00:00 6,4 2,4 4 2 - - S 1022,9 0,0
21.01.2019 12:00:00 5,6 2,6 4 2 - - SW 1023,7 0,0
21.01.2019 11:00:00 5,2 2,1 4 2 - - SSW 1024,6 0,0
21.01.2019 10:00:00 4,5 2,0 4 2 - - SSW 1025,0 0,0
21.01.2019 09:00:00 2,8 1,7 4 2 - - NNE 1024,9 0,0
21.01.2019 08:00:00 0,8 -0,4 11 6 - - NE 1024,6 0,0
21.01.2019 07:00:00 1,7 0,4 9 5 - - NNE 1024,6 0,0
21.01.2019 06:00:00 1,6 -0,2 8 4 - - NNE - 0,0
21.01.2019 05:00:00 1,9 -0,2 11 6 - - NNE - 0,0
21.01.2019 04:00:00 1,4 -0,3 8 4 - - N - 0,0
21.01.2019 03:00:00 1,4 -0,6 4 2 - - NE - 0,0
21.01.2019 02:00:00 1,0 -0,8 5 3 - - N - 0,0
21.01.2019 01:00:00 1,0 -0,8 4 2 - - NE 1024,5 0,0
21.01.2019 00:00:00 1,7 -0,2 2 1 - - ENE 1024,3 0,0
20.01.2019 23:00:00 1,6 -0,3 4 2 - - ESE 1024,2 0,0
20.01.2019 22:00:00 1,5 -0,4 4 2 - - E 1023,4 0,0
20.01.2019 21:00:00 1,6 -0,3 4 2 - - NE 1023,1 0,0
20.01.2019 20:00:00 1,6 -0,6 5 3 - - E 1022,4 0,0
20.01.2019 19:00:00 2,1 -0,9 5 3 - - NE 1021,7 0,0
20.01.2019 18:00:00 3,1 -0,4 11 6 - - NNE 1020,9 0,0
20.01.2019 17:00:00 3,7 -0,2 8 4 - - N 1020,3 0,0
20.01.2019 16:00:00 4,6 -0,1 8 4 - - NNW 1019,5 0,0
20.01.2019 15:00:00 4,6 0,0 9 5 - - NE 1018,6 0,0
20.01.2019 14:00:00 4,8 0,6 9 5 - - NE 1018,1 0,0
20.01.2019 13:00:00 4,2 0,6 8 4 - - ENE 1017,9 0,0
20.01.2019 12:00:00 3,2 -0,7 9 5 - - NNE 1017,9 0,0
20.01.2019 11:00:00 3,4 0,2 13 7 - - NNE 1017,6 0,0
20.01.2019 10:00:00 2,7 0,1 15 8 - - NE 1016,8 0,0
20.01.2019 09:00:00 1,6 -0,1 18 10 - - NNE 1015,7 0,0
20.01.2019 08:00:00 1,3 -0,4 16 9 - - NNE 1014,6 0,0
20.01.2019 07:00:00 1,7 -0,1 13 7 - - NE - 0,0
20.01.2019 06:00:00 2,2 0,3 16 9 - - NE - 0,0
20.01.2019 05:00:00 3,2 1,4 16 9 - - NE - 0,0
20.01.2019 04:00:00 3,5 1,8 21 11 - - NNE - 0,0
20.01.2019 03:00:00 3,8 2,1 18 10 - - NE - 0,0
20.01.2019 02:00:00 4,3 2,5 18 10 - - NE - 0,0
20.01.2019 01:00:00 4,8 3,1 15 8 - - NE 1010,6 0,0
20.01.2019 00:00:00 5,2 3,6 13 7 - - NE 1010,0 0,0
19.01.2019 23:00:00 5,8 4,1 16 9 - - E 1009,3 0,0
19.01.2019 22:00:00 6,0 4,3 15 8 - - E 1008,9 0,0
19.01.2019 21:00:00 6,0 4,4 16 9 - - E 1008,5 0,0
19.01.2019 20:00:00 6,3 4,8 22 12 - - E 1007,7 0,0
19.01.2019 19:00:00 6,6 4,9 15 8 - - ESE 1007,4 0,0
19.01.2019 18:00:00 6,6 4,6 15 8 - - ESE 1007,1 0,0
19.01.2019 17:00:00 6,7 4,9 13 7 - - ESE 1006,8 0,0
19.01.2019 16:00:00 6,7 4,8 16 9 - - ESE 1006,5 0,0
19.01.2019 15:00:00 6,8 5,2 15 8 - - SE 1006,4 0,0
19.01.2019 14:00:00 6,8 5,1 13 7 - - SE 1006,5 0,0
19.01.2019 13:00:00 6,6 5,2 11 6 - - SSE 1007,0 0,0
19.01.2019 12:00:00 6,6 5,0 13 7 - - SSE 1007,5 0,0
19.01.2019 11:00:00 6,8 4,9 13 7 - - SSE 1007,8 0,0
19.01.2019 10:00:00 6,9 4,9 11 6 - - SSE 1007,6 0,0
19.01.2019 09:00:00 6,8 5,2 13 7 - - S 1007,6 0,0
19.01.2019 08:00:00 6,7 5,2 13 7 - - S 1007,4 0,0
19.01.2019 07:00:00 6,2 5,0 9 5 - - S 1007,5 0,0
19.01.2019 06:00:00 6,2 4,8 16 9 - - S 1007,7 0,0
19.01.2019 05:00:00 6,3 4,8 16 9 - - S 1008,0 0,0
19.01.2019 04:00:00 6,1 4,3 21 11 - - SSE 1008,6 0,0
19.01.2019 03:00:00 6,1 4,3 21 11 - - S 1009,1 0,2
19.01.2019 02:00:00 6,2 5,4 22 12 - - SSE 1009,5 0,4
19.01.2019 01:00:00 6,0 5,0 21 11 - - SSE 1010,0 0,2
19.01.2019 00:00:00 6,0 4,1 22 12 - - SSE 1010,7 0,2
18.01.2019 23:00:00 6,3 2,8 22 12 - - SSE 1010,9 0,0
18.01.2019 22:00:00 6,7 2,9 24 13 - - SSE 1011,2 0,0
18.01.2019 21:00:00 6,6 2,0 24 13 - - SSE 1011,6 0,0
18.01.2019 20:00:00 6,7 1,3 22 12 - - SSE 1011,9 0,0
18.01.2019 19:00:00 6,7 0,2 24 13 - - SSE 1012,3 0,0
18.01.2019 18:00:00 6,6 -0,3 21 11 - - SSE 1012,5 0,0
18.01.2019 17:00:00 6,5 -1,0 21 11 - - SSE 1013,3 0,0
18.01.2019 16:00:00 6,5 -1,3 21 11 - - SSE 1013,6 0,0
18.01.2019 15:00:00 6,5 -0,9 21 11 - - SSE 1014,0 0,0
18.01.2019 14:00:00 6,2 -1,2 22 12 - - SSE 1014,8 0,0
18.01.2019 13:00:00 6,1 -1,2 18 10 - - S 1015,5 0,0
18.01.2019 12:00:00 5,9 -1,0 21 11 - - S 1016,2 0,0
18.01.2019 11:00:00 6,1 -0,3 18 10 - - S 1016,8 0,0
18.01.2019 10:00:00 6,1 -0,3 16 9 - - S 1017,0 0,0
18.01.2019 09:00:00 6,1 0,0 18 10 - - S 1017,0 0,0
18.01.2019 08:00:00 6,0 -0,2 16 9 - - S 1017,1 0,0
18.01.2019 07:00:00 6,1 -0,2 11 6 - - S 1017,1 0,0
18.01.2019 06:00:00 5,8 -0,1 9 5 - - S 1017,3 0,0
18.01.2019 05:00:00 5,4 -0,6 9 5 - - S 1017,8 0,0
18.01.2019 04:00:00 5,1 -1,0 8 4 - - S 1018,3 0,0
18.01.2019 03:00:00 4,3 -0,7 4 2 - - ESE 1019,1 0,0
18.01.2019 02:00:00 2,7 -1,9 8 4 - - ENE 1019,2 0,0
18.01.2019 01:00:00 1,1 -3,6 8 4 - - ENE 1019,4 0,0
18.01.2019 00:00:00 2,5 -2,9 2 1 - - W 1019,7 0,0
17.01.2019 23:00:00 3,4 -3,1 9 5 - - N 1019,7 0,0

tt = temperature
td = dewpoint
ff = wind speed
fx = gusts
dd = wind direction
ppp = reduced air pressure
rr = precipitation

Next stations